sensor_id;sensor_type;location;lat;lon;timestamp;pressure;altitude;pressure_sealevel;temperature;humidity
5755;BME280;2902;42.130;24.732;2023-02-14T00:02:05;100932.06;;;4.47;60.86
5755;BME280;2902;42.130;24.732;2023-02-14T00:04:33;100929.06;;;4.41;60.51
5755;BME280;2902;42.130;24.732;2023-02-14T00:07:04;100927.88;;;4.34;61.13
5755;BME280;2902;42.130;24.732;2023-02-14T00:09:36;100926.56;;;4.28;61.49
5755;BME280;2902;42.130;24.732;2023-02-14T00:12:04;100910.91;;;4.27;60.39
5755;BME280;2902;42.130;24.732;2023-02-14T00:14:32;100921.94;;;4.21;61.41
5755;BME280;2902;42.130;24.732;2023-02-14T00:17:22;100913.06;;;4.22;60.80
5755;BME280;2902;42.130;24.732;2023-02-14T00:20:06;100917.72;;;4.29;60.44
5755;BME280;2902;42.130;24.732;2023-02-14T00:22:33;100926.09;;;4.23;60.42
5755;BME280;2902;42.130;24.732;2023-02-14T00:25:02;100928.50;;;4.26;60.71
5755;BME280;2902;42.130;24.732;2023-02-14T00:27:29;100931.25;;;4.14;60.68
5755;BME280;2902;42.130;24.732;2023-02-14T00:29:58;100924.66;;;4.19;60.73
5755;BME280;2902;42.130;24.732;2023-02-14T00:32:40;100925.03;;;4.26;60.51
5755;BME280;2902;42.130;24.732;2023-02-14T00:35:08;100927.41;;;4.29;60.17
5755;BME280;2902;42.130;24.732;2023-02-14T00:37:39;100915.94;;;4.41;59.73
5755;BME280;2902;42.130;24.732;2023-02-14T00:40:12;100920.34;;;4.40;59.36
5755;BME280;2902;42.130;24.732;2023-02-14T00:42:41;100919.72;;;4.48;58.73
5755;BME280;2902;42.130;24.732;2023-02-14T00:45:12;100918.63;;;4.50;58.35
5755;BME280;2902;42.130;24.732;2023-02-14T00:47:45;100919.72;;;4.48;58.60
5755;BME280;2902;42.130;24.732;2023-02-14T00:50:14;100915.06;;;4.40;58.90
5755;BME280;2902;42.130;24.732;2023-02-14T00:52:43;100926.31;;;4.42;59.02
5755;BME280;2902;42.130;24.732;2023-02-14T00:55:12;100914.47;;;4.48;58.06
5755;BME280;2902;42.130;24.732;2023-02-14T00:57:40;100923.66;;;4.42;58.53
5755;BME280;2902;42.130;24.732;2023-02-14T01:00:12;100921.06;;;4.31;58.71
5755;BME280;2902;42.130;24.732;2023-02-14T01:02:47;100929.31;;;4.38;58.26
5755;BME280;2902;42.130;24.732;2023-02-14T01:07:59;100928.00;;;4.43;58.55
5755;BME280;2902;42.130;24.732;2023-02-14T01:10:29;100915.19;;;4.39;58.70
5755;BME280;2902;42.130;24.732;2023-02-14T01:13:05;100910.50;;;4.42;57.94
5755;BME280;2902;42.130;24.732;2023-02-14T01:15:37;100913.03;;;4.44;57.52
5755;BME280;2902;42.130;24.732;2023-02-14T01:18:06;100919.84;;;4.46;58.16
5755;BME280;2902;42.130;24.732;2023-02-14T01:20:35;100906.44;;;4.49;57.86
5755;BME280;2902;42.130;24.732;2023-02-14T01:23:04;100908.16;;;4.39;57.58
5755;BME280;2902;42.130;24.732;2023-02-14T01:25:39;100898.34;;;4.41;57.62
5755;BME280;2902;42.130;24.732;2023-02-14T01:28:09;100892.84;;;4.33;57.17
5755;BME280;2902;42.130;24.732;2023-02-14T01:30:40;100890.22;;;4.33;57.45
5755;BME280;2902;42.130;24.732;2023-02-14T01:33:09;100882.53;;;4.41;57.53
5755;BME280;2902;42.130;24.732;2023-02-14T01:36:03;100886.84;;;4.42;58.17
5755;BME280;2902;42.130;24.732;2023-02-14T01:38:33;100888.78;;;4.40;58.20
5755;BME280;2902;42.130;24.732;2023-02-14T01:41:09;100893.53;;;4.46;57.89
5755;BME280;2902;42.130;24.732;2023-02-14T01:43:59;100894.03;;;4.51;58.18
5755;BME280;2902;42.130;24.732;2023-02-14T01:46:34;100893.50;;;4.57;57.49
5755;BME280;2902;42.130;24.732;2023-02-14T01:49:19;100891.97;;;4.55;57.00
5755;BME280;2902;42.130;24.732;2023-02-14T01:51:54;100894.47;;;4.67;56.78
5755;BME280;2902;42.130;24.732;2023-02-14T01:54:24;100904.13;;;4.67;56.82
5755;BME280;2902;42.130;24.732;2023-02-14T01:57:09;100901.13;;;4.71;56.19
5755;BME280;2902;42.130;24.732;2023-02-14T01:59:44;100885.53;;;4.79;56.60
5755;BME280;2902;42.130;24.732;2023-02-14T02:02:14;100873.22;;;4.80;56.76
5755;BME280;2902;42.130;24.732;2023-02-14T02:04:50;100867.72;;;4.83;56.63
5755;BME280;2902;42.130;24.732;2023-02-14T02:07:24;100865.69;;;4.75;56.47
5755;BME280;2902;42.130;24.732;2023-02-14T02:09:54;100864.03;;;4.74;56.82
5755;BME280;2902;42.130;24.732;2023-02-14T02:12:24;100861.59;;;4.82;56.07
5755;BME280;2902;42.130;24.732;2023-02-14T02:14:54;100854.81;;;4.69;56.49
5755;BME280;2902;42.130;24.732;2023-02-14T02:17:29;100846.56;;;4.73;56.26
5755;BME280;2902;42.130;24.732;2023-02-14T02:23:32;100853.50;;;4.74;56.13
5755;BME280;2902;42.130;24.732;2023-02-14T02:33:15;100843.31;;;5.01;54.94
5755;BME280;2902;42.130;24.732;2023-02-14T02:36:01;100843.19;;;5.03;54.63
5755;BME280;2902;42.130;24.732;2023-02-14T02:38:44;100830.59;;;5.06;54.87
5755;BME280;2902;42.130;24.732;2023-02-14T02:41:17;100839.59;;;5.04;54.67
5755;BME280;2902;42.130;24.732;2023-02-14T02:43:56;100844.75;;;5.05;55.04
5755;BME280;2902;42.130;24.732;2023-02-14T02:46:36;100852.19;;;5.00;55.23
5755;BME280;2902;42.130;24.732;2023-02-14T02:49:39;100858.19;;;4.91;55.78
5755;BME280;2902;42.130;24.732;2023-02-14T02:52:36;100847.94;;;4.88;55.24
5755;BME280;2902;42.130;24.732;2023-02-14T02:55:36;100848.97;;;4.97;55.74
5755;BME280;2902;42.130;24.732;2023-02-14T02:58:21;100846.00;;;4.90;55.42
5755;BME280;2902;42.130;24.732;2023-02-14T03:00:52;100844.72;;;4.85;55.48
5755;BME280;2902;42.130;24.732;2023-02-14T03:03:25;100834.19;;;4.85;55.82
5755;BME280;2902;42.130;24.732;2023-02-14T03:06:12;100835.81;;;4.76;55.33
5755;BME280;2902;42.130;24.732;2023-02-14T03:08:41;100830.06;;;4.71;55.78
5755;BME280;2902;42.130;24.732;2023-02-14T03:11:14;100822.47;;;4.57;56.55
5755;BME280;2902;42.130;24.732;2023-02-14T03:14:01;100819.84;;;4.57;56.47
5755;BME280;2902;42.130;24.732;2023-02-14T03:16:40;100817.25;;;4.46;57.13
5755;BME280;2902;42.130;24.732;2023-02-14T03:19:37;100816.31;;;4.36;56.89
5755;BME280;2902;42.130;24.732;2023-02-14T03:22:32;100822.28;;;4.38;57.80
5755;BME280;2902;42.130;24.732;2023-02-14T03:25:13;100811.53;;;4.41;57.21
5755;BME280;2902;42.130;24.732;2023-02-14T03:27:57;100810.16;;;4.26;57.44
5755;BME280;2902;42.130;24.732;2023-02-14T03:30:32;100805.81;;;4.36;57.75
5755;BME280;2902;42.130;24.732;2023-02-14T03:36:09;100808.44;;;4.36;58.15
5755;BME280;2902;42.130;24.732;2023-02-14T03:38:44;100798.38;;;4.41;57.82
5755;BME280;2902;42.130;24.732;2023-02-14T03:41:26;100807.72;;;4.34;57.83
5755;BME280;2902;42.130;24.732;2023-02-14T03:43:58;100805.56;;;4.39;57.66
5755;BME280;2902;42.130;24.732;2023-02-14T03:46:31;100816.31;;;4.36;57.54
5755;BME280;2902;42.130;24.732;2023-02-14T03:49:11;100812.72;;;4.37;57.50
5755;BME280;2902;42.130;24.732;2023-02-14T03:51:46;100806.72;;;4.46;57.11
5755;BME280;2902;42.130;24.732;2023-02-14T03:54:31;100799.44;;;4.50;57.30
5755;BME280;2902;42.130;24.732;2023-02-14T03:57:07;100813.41;;;4.50;56.98
5755;BME280;2902;42.130;24.732;2023-02-14T03:59:40;100822.13;;;4.51;56.50
5755;BME280;2902;42.130;24.732;2023-02-14T04:02:11;100823.19;;;4.59;56.63
5755;BME280;2902;42.130;24.732;2023-02-14T04:04:44;100833.44;;;4.62;56.10
5755;BME280;2902;42.130;24.732;2023-02-14T04:07:22;100830.44;;;4.67;55.82
5755;BME280;2902;42.130;24.732;2023-02-14T04:09:53;100821.50;;;4.58;56.35
5755;BME280;2902;42.130;24.732;2023-02-14T04:12:25;100809.31;;;4.57;55.97
5755;BME280;2902;42.130;24.732;2023-02-14T04:14:57;100798.22;;;4.54;55.88
5755;BME280;2902;42.130;24.732;2023-02-14T04:17:27;100797.28;;;4.44;56.56
5755;BME280;2902;42.130;24.732;2023-02-14T04:20:12;100794.66;;;4.44;56.79
5755;BME280;2902;42.130;24.732;2023-02-14T04:22:41;100796.47;;;4.43;57.10
5755;BME280;2902;42.130;24.732;2023-02-14T04:25:20;100782.84;;;4.38;56.73
5755;BME280;2902;42.130;24.732;2023-02-14T04:27:52;100776.91;;;4.25;57.24
5755;BME280;2902;42.130;24.732;2023-02-14T04:30:25;100784.09;;;4.23;57.44
5755;BME280;2902;42.130;24.732;2023-02-14T04:32:58;100777.19;;;4.11;58.08
5755;BME280;2902;42.130;24.732;2023-02-14T04:35:26;100770.94;;;4.23;57.71
5755;BME280;2902;42.130;24.732;2023-02-14T04:37:58;100773.13;;;4.18;57.60
5755;BME280;2902;42.130;24.732;2023-02-14T04:40:34;100770.97;;;4.12;57.90
5755;BME280;2902;42.130;24.732;2023-02-14T04:43:05;100763.53;;;4.17;57.71
5755;BME280;2902;42.130;24.732;2023-02-14T04:45:33;100759.47;;;4.24;56.91
5755;BME280;2902;42.130;24.732;2023-02-14T04:48:06;100761.41;;;4.22;56.64
5755;BME280;2902;42.130;24.732;2023-02-14T04:50:51;100748.19;;;4.33;56.05
5755;BME280;2902;42.130;24.732;2023-02-14T04:53:36;100746.28;;;4.35;55.40
5755;BME280;2902;42.130;24.732;2023-02-14T04:56:08;100758.94;;;4.30;56.18
5755;BME280;2902;42.130;24.732;2023-02-14T04:58:38;100762.63;;;4.39;55.79
5755;BME280;2902;42.130;24.732;2023-02-14T05:01:06;100755.38;;;4.31;55.80
5755;BME280;2902;42.130;24.732;2023-02-14T05:03:33;100751.06;;;4.30;55.85
5755;BME280;2902;42.130;24.732;2023-02-14T05:06:03;100747.84;;;4.27;56.20
5755;BME280;2902;42.130;24.732;2023-02-14T05:08:36;100734.38;;;4.20;56.14
5755;BME280;2902;42.130;24.732;2023-02-14T05:11:18;100724.59;;;4.22;57.23
5755;BME280;2902;42.130;24.732;2023-02-14T05:13:49;100723.31;;;4.06;57.59
5755;BME280;2902;42.130;24.732;2023-02-14T05:16:17;100723.94;;;3.98;57.42
5755;BME280;2902;42.130;24.732;2023-02-14T05:18:44;100721.34;;;3.87;58.16
5755;BME280;2902;42.130;24.732;2023-02-14T05:21:11;100729.34;;;3.86;58.60
5755;BME280;2902;42.130;24.732;2023-02-14T05:23:39;100726.59;;;3.87;58.50
5755;BME280;2902;42.130;24.732;2023-02-14T05:26:06;100729.09;;;4.00;58.35
5755;BME280;2902;42.130;24.732;2023-02-14T05:28:33;100733.25;;;4.02;58.29
5755;BME280;2902;42.130;24.732;2023-02-14T05:31:02;100743.78;;;4.02;58.90
5755;BME280;2902;42.130;24.732;2023-02-14T05:33:33;100746.66;;;3.88;58.92
5755;BME280;2902;42.130;24.732;2023-02-14T05:36:00;100738.25;;;4.05;59.20
5755;BME280;2902;42.130;24.732;2023-02-14T05:38:28;100743.38;;;4.07;58.66
5755;BME280;2902;42.130;24.732;2023-02-14T05:40:55;100743.03;;;4.11;58.55
5755;BME280;2902;42.130;24.732;2023-02-14T05:43:23;100746.09;;;4.16;58.93
5755;BME280;2902;42.130;24.732;2023-02-14T05:45:51;100742.47;;;4.28;58.66
5755;BME280;2902;42.130;24.732;2023-02-14T05:48:20;100739.16;;;4.26;58.04
5755;BME280;2902;42.130;24.732;2023-02-14T05:50:52;100737.66;;;4.33;58.55
5755;BME280;2902;42.130;24.732;2023-02-14T05:53:26;100733.72;;;4.59;57.94
5755;BME280;2902;42.130;24.732;2023-02-14T05:55:56;100727.16;;;4.74;57.15
5755;BME280;2902;42.130;24.732;2023-02-14T05:58:23;100715.09;;;4.92;56.13
5755;BME280;2902;42.130;24.732;2023-02-14T06:00:56;100713.53;;;5.10;55.38
5755;BME280;2902;42.130;24.732;2023-02-14T06:03:29;100719.13;;;5.26;55.14
5755;BME280;2902;42.130;24.732;2023-02-14T06:05:59;100725.03;;;5.49;54.01
5755;BME280;2902;42.130;24.732;2023-02-14T06:08:28;100725.38;;;5.65;53.61
5755;BME280;2902;42.130;24.732;2023-02-14T06:11:00;100725.97;;;5.78;51.88
5755;BME280;2902;42.130;24.732;2023-02-14T06:13:28;100732.69;;;5.92;51.86
5755;BME280;2902;42.130;24.732;2023-02-14T06:15:56;100737.44;;;6.17;51.45
5755;BME280;2902;42.130;24.732;2023-02-14T06:18:28;100729.53;;;6.17;51.07
5755;BME280;2902;42.130;24.732;2023-02-14T06:20:56;100727.72;;;6.27;50.96
5755;BME280;2902;42.130;24.732;2023-02-14T06:23:23;100725.50;;;6.32;50.57
5755;BME280;2902;42.130;24.732;2023-02-14T06:25:50;100731.59;;;6.42;50.54
5755;BME280;2902;42.130;24.732;2023-02-14T06:28:17;100735.19;;;6.60;50.00
5755;BME280;2902;42.130;24.732;2023-02-14T06:30:45;100733.53;;;6.78;49.49
5755;BME280;2902;42.130;24.732;2023-02-14T06:33:12;100725.13;;;6.92;48.70
5755;BME280;2902;42.130;24.732;2023-02-14T06:35:41;100725.25;;;7.09;48.35
5755;BME280;2902;42.130;24.732;2023-02-14T06:38:08;100734.41;;;7.15;48.32
5755;BME280;2902;42.130;24.732;2023-02-14T06:40:35;100735.31;;;7.33;48.11
5755;BME280;2902;42.130;24.732;2023-02-14T06:43:01;100726.59;;;7.50;47.23
5755;BME280;2902;42.130;24.732;2023-02-14T06:45:28;100713.63;;;7.56;46.93
5755;BME280;2902;42.130;24.732;2023-02-14T06:47:55;100737.09;;;7.69;46.51
5755;BME280;2902;42.130;24.732;2023-02-14T06:50:21;100732.31;;;7.72;46.88
5755;BME280;2902;42.130;24.732;2023-02-14T06:52:49;100748.63;;;7.95;46.00
5755;BME280;2902;42.130;24.732;2023-02-14T06:55:16;100746.06;;;8.03;46.11
5755;BME280;2902;42.130;24.732;2023-02-14T06:57:43;100735.47;;;8.03;44.90
5755;BME280;2902;42.130;24.732;2023-02-14T07:00:11;100734.19;;;8.07;45.47
5755;BME280;2902;42.130;24.732;2023-02-14T07:02:39;100740.28;;;8.17;46.06
5755;BME280;2902;42.130;24.732;2023-02-14T07:05:05;100739.00;;;8.38;45.26
5755;BME280;2902;42.130;24.732;2023-02-14T07:07:32;100728.66;;;8.45;45.53
5755;BME280;2902;42.130;24.732;2023-02-14T07:10:00;100734.56;;;8.56;44.95
5755;BME280;2902;42.130;24.732;2023-02-14T07:12:27;100740.59;;;8.66;44.37
5755;BME280;2902;42.130;24.732;2023-02-14T07:14:54;100729.91;;;8.76;44.48
5755;BME280;2902;42.130;24.732;2023-02-14T07:17:20;100729.09;;;8.75;44.19
5755;BME280;2902;42.130;24.732;2023-02-14T07:19:47;100729.31;;;8.82;43.90
5755;BME280;2902;42.130;24.732;2023-02-14T07:22:14;100729.25;;;8.74;43.61
5755;BME280;2902;42.130;24.732;2023-02-14T07:24:40;100732.00;;;8.90;44.55
5755;BME280;2902;42.130;24.732;2023-02-14T07:27:09;100730.63;;;9.11;43.08
5755;BME280;2902;42.130;24.732;2023-02-14T07:29:35;100730.88;;;9.26;43.88
5755;BME280;2902;42.130;24.732;2023-02-14T07:32:04;100726.88;;;9.47;42.72
5755;BME280;2902;42.130;24.732;2023-02-14T07:34:31;100721.00;;;9.36;42.96
5755;BME280;2902;42.130;24.732;2023-02-14T07:37:00;100714.31;;;9.24;43.51
5755;BME280;2902;42.130;24.732;2023-02-14T07:39:27;100716.53;;;9.36;44.24
5755;BME280;2902;42.130;24.732;2023-02-14T07:41:54;100699.84;;;9.44;43.45
5755;BME280;2902;42.130;24.732;2023-02-14T07:44:22;100711.06;;;9.38;43.74
5755;BME280;2902;42.130;24.732;2023-02-14T07:46:49;100707.31;;;9.48;43.52
5755;BME280;2902;42.130;24.732;2023-02-14T07:49:16;100716.25;;;9.47;43.62
5755;BME280;2902;42.130;24.732;2023-02-14T07:51:43;100705.03;;;9.53;43.35
5755;BME280;2902;42.130;24.732;2023-02-14T07:54:10;100721.13;;;9.60;43.08
5755;BME280;2902;42.130;24.732;2023-02-14T07:56:36;100713.59;;;9.89;42.79
5755;BME280;2902;42.130;24.732;2023-02-14T07:59:03;100715.28;;;9.98;42.00
5755;BME280;2902;42.130;24.732;2023-02-14T08:01:34;100704.72;;;10.14;41.74
5755;BME280;2902;42.130;24.732;2023-02-14T08:04:00;100707.00;;;10.01;41.57
5755;BME280;2902;42.130;24.732;2023-02-14T08:06:27;100714.56;;;9.88;42.32
5755;BME280;2902;42.130;24.732;2023-02-14T08:08:54;100711.03;;;10.13;42.04
5755;BME280;2902;42.130;24.732;2023-02-14T08:11:21;100714.53;;;10.45;41.78
5755;BME280;2902;42.130;24.732;2023-02-14T08:14:06;100730.97;;;10.65;41.15
5755;BME280;2902;42.130;24.732;2023-02-14T08:16:34;100729.16;;;10.89;40.83
5755;BME280;2902;42.130;24.732;2023-02-14T08:19:02;100721.19;;;10.81;40.48
5755;BME280;2902;42.130;24.732;2023-02-14T08:21:29;100724.50;;;10.83;40.40
5755;BME280;2902;42.130;24.732;2023-02-14T08:23:56;100732.28;;;10.93;40.40
5755;BME280;2902;42.130;24.732;2023-02-14T08:26:25;100740.94;;;10.87;40.87
5755;BME280;2902;42.130;24.732;2023-02-14T08:28:52;100749.91;;;10.86;41.18
5755;BME280;2902;42.130;24.732;2023-02-14T08:31:23;100745.09;;;11.06;41.08
5755;BME280;2902;42.130;24.732;2023-02-14T08:33:52;100744.41;;;10.95;40.63
5755;BME280;2902;42.130;24.732;2023-02-14T08:36:19;100745.91;;;11.06;40.52
5755;BME280;2902;42.130;24.732;2023-02-14T08:38:48;100734.56;;;11.28;40.07
5755;BME280;2902;42.130;24.732;2023-02-14T08:41:16;100744.13;;;11.53;39.55
5755;BME280;2902;42.130;24.732;2023-02-14T08:43:45;100741.84;;;11.34;39.86
5755;BME280;2902;42.130;24.732;2023-02-14T08:46:11;100748.84;;;11.27;40.14
5755;BME280;2902;42.130;24.732;2023-02-14T08:48:39;100742.84;;;11.33;39.72
5755;BME280;2902;42.130;24.732;2023-02-14T08:51:09;100741.78;;;11.58;39.80
5755;BME280;2902;42.130;24.732;2023-02-14T08:53:41;100738.78;;;11.69;39.64
5755;BME280;2902;42.130;24.732;2023-02-14T08:56:12;100736.09;;;11.77;40.58
5755;BME280;2902;42.130;24.732;2023-02-14T08:58:39;100710.66;;;11.97;39.96
5755;BME280;2902;42.130;24.732;2023-02-14T09:01:07;100716.50;;;12.01;39.47
5755;BME280;2902;42.130;24.732;2023-02-14T09:03:35;100712.84;;;11.94;39.44
5755;BME280;2902;42.130;24.732;2023-02-14T09:06:02;100705.69;;;12.47;46.46
5755;BME280;2902;42.130;24.732;2023-02-14T09:08:31;100711.41;;;12.59;38.23
5755;BME280;2902;42.130;24.732;2023-02-14T09:11:05;100696.56;;;12.42;38.16
5755;BME280;2902;42.130;24.732;2023-02-14T09:13:32;100696.72;;;12.63;38.08
5755;BME280;2902;42.130;24.732;2023-02-14T09:16:02;100689.81;;;12.31;37.83
5755;BME280;2902;42.130;24.732;2023-02-14T09:18:29;100688.44;;;12.35;38.01
5755;BME280;2902;42.130;24.732;2023-02-14T09:20:56;100673.66;;;12.33;37.98
5755;BME280;2902;42.130;24.732;2023-02-14T09:23:23;100684.31;;;12.10;38.11
5755;BME280;2902;42.130;24.732;2023-02-14T09:25:59;100679.09;;;12.17;38.29
5755;BME280;2902;42.130;24.732;2023-02-14T09:28:26;100683.13;;;12.35;37.72
5755;BME280;2902;42.130;24.732;2023-02-14T09:30:53;100684.13;;;12.34;37.49
5755;BME280;2902;42.130;24.732;2023-02-14T09:33:20;100679.31;;;12.52;37.13
5755;BME280;2902;42.130;24.732;2023-02-14T09:35:47;100684.78;;;12.73;36.12
5755;BME280;2902;42.130;24.732;2023-02-14T09:38:14;100675.88;;;12.81;36.09
5755;BME280;2902;42.130;24.732;2023-02-14T09:40:41;100672.69;;;12.48;36.79
5755;BME280;2902;42.130;24.732;2023-02-14T09:43:17;100658.19;;;12.28;37.75
5755;BME280;2902;42.130;24.732;2023-02-14T09:45:52;100673.19;;;12.66;37.15
5755;BME280;2902;42.130;24.732;2023-02-14T09:48:25;100676.06;;;12.42;37.73
5755;BME280;2902;42.130;24.732;2023-02-14T09:50:57;100670.09;;;12.40;38.24
5755;BME280;2902;42.130;24.732;2023-02-14T09:53:27;100650.09;;;12.22;40.15
5755;BME280;2902;42.130;24.732;2023-02-14T09:56:00;100658.03;;;12.07;38.13
5755;BME280;2902;42.130;24.732;2023-02-14T09:58:34;100652.56;;;12.23;38.51
5755;BME280;2902;42.130;24.732;2023-02-14T10:01:10;100649.66;;;12.55;36.85
5755;BME280;2902;42.130;24.732;2023-02-14T10:04:05;100644.44;;;12.76;36.46
5755;BME280;2902;42.130;24.732;2023-02-14T10:06:45;100633.22;;;12.95;36.24
5755;BME280;2902;42.130;24.732;2023-02-14T10:09:37;100649.06;;;13.11;36.23
5755;BME280;2902;42.130;24.732;2023-02-14T10:12:10;100642.66;;;13.20;36.16
5755;BME280;2902;42.130;24.732;2023-02-14T10:14:41;100635.59;;;13.48;35.53
5755;BME280;2902;42.130;24.732;2023-02-14T10:17:13;100636.38;;;13.42;35.49
5755;BME280;2902;42.130;24.732;2023-02-14T10:19:44;100635.09;;;13.38;35.24
5755;BME280;2902;42.130;24.732;2023-02-14T10:22:15;100626.34;;;13.30;35.58
5755;BME280;2902;42.130;24.732;2023-02-14T10:24:46;100630.63;;;12.87;35.99
5755;BME280;2902;42.130;24.732;2023-02-14T10:27:26;100615.16;;;12.39;37.54
5755;BME280;2902;42.130;24.732;2023-02-14T10:29:56;100620.25;;;12.63;37.56
5755;BME280;2902;42.130;24.732;2023-02-14T10:32:29;100619.78;;;12.23;38.23
5755;BME280;2902;42.130;24.732;2023-02-14T10:34:59;100613.19;;;12.33;38.01
5755;BME280;2902;42.130;24.732;2023-02-14T10:37:40;100599.50;;;12.36;38.13
5755;BME280;2902;42.130;24.732;2023-02-14T10:40:42;100601.22;;;12.29;38.19
5755;BME280;2902;42.130;24.732;2023-02-14T10:43:21;100601.81;;;12.39;38.01
5755;BME280;2902;42.130;24.732;2023-02-14T10:45:58;100588.59;;;12.46;37.87
5755;BME280;2902;42.130;24.732;2023-02-14T10:48:37;100593.81;;;12.39;38.22
5755;BME280;2902;42.130;24.732;2023-02-14T10:51:13;100588.78;;;12.07;38.06
5755;BME280;2902;42.130;24.732;2023-02-14T10:53:49;100586.41;;;12.12;38.33
5755;BME280;2902;42.130;24.732;2023-02-14T10:56:25;100586.47;;;12.41;37.53
5755;BME280;2902;42.130;24.732;2023-02-14T10:58:58;100575.19;;;12.54;37.23
5755;BME280;2902;42.130;24.732;2023-02-14T11:01:29;100576.78;;;12.77;37.03
5755;BME280;2902;42.130;24.732;2023-02-14T11:03:58;100585.72;;;12.99;36.63
5755;BME280;2902;42.130;24.732;2023-02-14T11:06:28;100574.00;;;12.85;36.81
5755;BME280;2902;42.130;24.732;2023-02-14T11:08:55;100568.13;;;12.75;37.23
5755;BME280;2902;42.130;24.732;2023-02-14T11:11:24;100568.75;;;12.92;36.89
5755;BME280;2902;42.130;24.732;2023-02-14T11:13:52;100555.25;;;12.93;36.75
5755;BME280;2902;42.130;24.732;2023-02-14T11:16:28;100559.66;;;12.86;36.48
5755;BME280;2902;42.130;24.732;2023-02-14T11:19:14;100558.66;;;12.73;36.74
5755;BME280;2902;42.130;24.732;2023-02-14T11:21:45;100548.47;;;13.05;36.79
5755;BME280;2902;42.130;24.732;2023-02-14T11:24:18;100552.22;;;12.96;36.64
5755;BME280;2902;42.130;24.732;2023-02-14T11:26:46;100549.66;;;12.74;36.97
5755;BME280;2902;42.130;24.732;2023-02-14T11:29:17;100547.78;;;12.89;37.17
5755;BME280;2902;42.130;24.732;2023-02-14T11:31:46;100546.22;;;12.94;37.11
5755;BME280;2902;42.130;24.732;2023-02-14T11:34:30;100541.09;;;12.78;37.94
5755;BME280;2902;42.130;24.732;2023-02-14T11:36:58;100539.09;;;12.80;37.86
5755;BME280;2902;42.130;24.732;2023-02-14T11:39:29;100554.88;;;12.96;37.18
5755;BME280;2902;42.130;24.732;2023-02-14T11:41:59;100551.13;;;12.91;37.05
5755;BME280;2902;42.130;24.732;2023-02-14T11:44:27;100548.91;;;12.51;37.71
5755;BME280;2902;42.130;24.732;2023-02-14T11:46:56;100532.72;;;12.38;38.63
5755;BME280;2902;42.130;24.732;2023-02-14T11:49:30;100524.56;;;12.39;38.36
5755;BME280;2902;42.130;24.732;2023-02-14T11:51:59;100536.69;;;12.56;38.63
5755;BME280;2902;42.130;24.732;2023-02-14T11:54:31;100541.47;;;12.75;38.51
5755;BME280;2902;42.130;24.732;2023-02-14T11:57:04;100530.59;;;12.62;38.41
5755;BME280;2902;42.130;24.732;2023-02-14T11:59:37;100528.34;;;12.74;38.06
5755;BME280;2902;42.130;24.732;2023-02-14T12:02:17;100529.63;;;12.63;37.66
5755;BME280;2902;42.130;24.732;2023-02-14T12:04:48;100527.19;;;12.25;38.48
5755;BME280;2902;42.130;24.732;2023-02-14T12:07:20;100515.59;;;12.18;38.94
5755;BME280;2902;42.130;24.732;2023-02-14T12:10:05;100517.69;;;11.93;39.38
5755;BME280;2902;42.130;24.732;2023-02-14T12:12:34;100520.25;;;12.01;39.44
5755;BME280;2902;42.130;24.732;2023-02-14T12:15:24;100513.69;;;12.26;38.77
5755;BME280;2902;42.130;24.732;2023-02-14T12:17:55;100506.91;;;12.38;37.90
5755;BME280;2902;42.130;24.732;2023-02-14T12:20:36;100508.38;;;12.26;38.39
5755;BME280;2902;42.130;24.732;2023-02-14T12:23:09;100505.88;;;12.10;38.41
5755;BME280;2902;42.130;24.732;2023-02-14T12:25:43;100503.25;;;11.88;39.11
5755;BME280;2902;42.130;24.732;2023-02-14T12:28:14;100510.88;;;12.05;39.11
5755;BME280;2902;42.130;24.732;2023-02-14T12:30:44;100507.25;;;12.21;38.80
5755;BME280;2902;42.130;24.732;2023-02-14T12:33:16;100505.25;;;12.37;38.58
5755;BME280;2902;42.130;24.732;2023-02-14T12:35:52;100503.78;;;12.49;38.04
5755;BME280;2902;42.130;24.732;2023-02-14T12:38:29;100502.84;;;12.42;38.47
5755;BME280;2902;42.130;24.732;2023-02-14T12:41:20;100490.53;;;12.41;38.17
5755;BME280;2902;42.130;24.732;2023-02-14T12:43:51;100504.13;;;12.46;38.34
5755;BME280;2902;42.130;24.732;2023-02-14T12:46:36;100503.22;;;12.68;38.21
5755;BME280;2902;42.130;24.732;2023-02-14T12:49:25;100502.03;;;12.42;39.32
5755;BME280;2902;42.130;24.732;2023-02-14T12:52:02;100486.13;;;12.48;39.51
5755;BME280;2902;42.130;24.732;2023-02-14T12:54:43;100482.50;;;11.98;40.27
5755;BME280;2902;42.130;24.732;2023-02-14T12:57:22;100493.41;;;11.88;40.14
5755;BME280;2902;42.130;24.732;2023-02-14T12:59:56;100488.00;;;11.96;39.82
5755;BME280;2902;42.130;24.732;2023-02-14T13:02:55;100483.97;;;12.00;40.07
5755;BME280;2902;42.130;24.732;2023-02-14T13:05:32;100483.09;;;12.08;39.79
5755;BME280;2902;42.130;24.732;2023-02-14T13:08:12;100489.22;;;12.08;39.81
5755;BME280;2902;42.130;24.732;2023-02-14T13:10:52;100481.91;;;11.73;40.06
5755;BME280;2902;42.130;24.732;2023-02-14T13:13:27;100483.13;;;11.40;40.50
5755;BME280;2902;42.130;24.732;2023-02-14T13:16:02;100493.72;;;11.48;40.88
5755;BME280;2902;42.130;24.732;2023-02-14T13:18:38;100496.88;;;11.21;41.51
5755;BME280;2902;42.130;24.732;2023-02-14T13:21:12;100496.81;;;11.07;42.07
5755;BME280;2902;42.130;24.732;2023-02-14T13:23:45;100497.34;;;11.25;41.73
5755;BME280;2902;42.130;24.732;2023-02-14T13:26:16;100489.53;;;11.23;41.33
5755;BME280;2902;42.130;24.732;2023-02-14T13:28:49;100495.28;;;11.12;41.75
5755;BME280;2902;42.130;24.732;2023-02-14T13:31:18;100491.94;;;11.10;42.45
5755;BME280;2902;42.130;24.732;2023-02-14T13:33:48;100469.34;;;10.83;42.56
5755;BME280;2902;42.130;24.732;2023-02-14T13:36:16;100504.47;;;10.63;43.69
5755;BME280;2902;42.130;24.732;2023-02-14T13:38:47;100504.84;;;10.52;44.28
5755;BME280;2902;42.130;24.732;2023-02-14T13:41:15;100494.28;;;10.28;44.60
5755;BME280;2902;42.130;24.732;2023-02-14T13:44:00;100497.59;;;10.30;44.57
5755;BME280;2902;42.130;24.732;2023-02-14T13:46:59;100496.31;;;10.10;45.42
5755;BME280;2902;42.130;24.732;2023-02-14T13:49:29;100522.19;;;10.16;45.30
5755;BME280;2902;42.130;24.732;2023-02-14T13:51:58;100510.56;;;10.25;45.53
5755;BME280;2902;42.130;24.732;2023-02-14T13:54:42;100513.84;;;10.35;45.54